Donie, Texas
Current Conditions -  °F | °C
As of 4:55 PM on Tuesday 25 Nov 2014 (Local Time) from KLXY Reporting Station
Clear Clear  
Wind Chill: 16°   Ceiling: Unl
Heat Index: 16°   Visibility: 10mi
Dew Point: -3°   Wind: 9mph
Humidity: 26%   Direction: 250°WSW
Pressure: 30.18"   Gusts: NA
Location:  31.48°N, 96.22°W
Report Text: KLXY 252255Z AUTO 25008KT 10SM CLR 16/M03 A3018 RMK AO2 T01611034
Loading
Personal Weather Stations






























Interactive Weather Map New forecast layout! Learn more

10-Day Weather Forecast

Advertisements
Track Severe Weather on mobile